• Join FlightAware (Why Join?)
  • Login
  • US Flag 
Rudolph Flight #1: Arrived! 
04:56AM EST


 

Airport Tracker/Info


-or-


 

Live Flight TrackerFlight Track Log ✈ AAY1812 ✈ 14-Feb-2014 ✈ KPIE - KROA

Flight Track Log - Related Links

Times and Time Zones

All times are in EST time to prevent confusion due to time zone crossing. See the AAY1812 flight status page for this flight to view local times or setup timezone preferences in your user account.

Time Position Orientation Groundspeed Altitude Reporting Facility
EST Latitude Longitude Course Direction KTS MPH feet Rate Location/Type
07:25AM 27.9333 -82.6833 319° Northwest 182 209 800  Level Tampa TRACON
07:25AM 27.9500 -82.7000 319° Northwest 176 203 1,500 1,560 Climbing Tampa TRACON
07:26AM 28.0167 -82.6500 34° Northeast 275 316 3,200 2,580 Climbing Tampa TRACON
07:28AM 28.1392 -82.6314 North 285 328 8,900 2,820 Climbing Jacksonville Center
07:29AM 28.2247 -82.6144 10° North 296 341 11,300 1,920 Climbing Jacksonville Center
07:30AM 28.3250 -82.5956 North 326 375 12,800 2,160 Climbing Jacksonville Center
07:31AM 28.4333 -82.5856 North 364 419 15,700 2,640 Climbing Jacksonville Center
07:32AM 28.5439 -82.5806 North 388 447 18,100 2,160 Climbing Jacksonville Center
07:33AM 28.6631 -82.5850 358° North 401 461 20,100 2,100 Climbing Jacksonville Center
07:34AM 28.7922 -82.5917 357° North 419 482 22,400 2,100 Climbing Jacksonville Center
07:35AM 28.9133 -82.6008 356° North 425 489 24,300 1,920 Climbing Jacksonville Center
07:36AM 29.0367 -82.6053 358° North 431 496 26,300 2,100 Climbing Jacksonville Center
07:37AM 29.1578 -82.6119 357° North 437 503 28,500 1,800 Climbing Jacksonville Center
07:38AM 29.2808 -82.6189 357° North 437 503 29,900 1,560 Climbing Jacksonville Center
07:39AM 29.3978 -82.6256 357° North 432 497 31,700 1,140 Climbing Jacksonville Center
07:40AM 29.5167 -82.6325 357° North 426 490 32,200 600 Climbing Jacksonville Center
07:41AM 29.6294 -82.6369 358° North 421 484 32,900 300 Climbing Jacksonville Center
07:42AM 29.7464 -82.6414 358° North 423 487 32,900  Level Jacksonville Center
07:43AM 29.8633 -82.6531 355° North 423 487 33,000  Climbing Jacksonville Center
07:44AM 29.9803 -82.6600 357° North 417 480 32,900 -60 Descending Jacksonville Center
07:45AM 30.0825 -82.6622 359° North 417 480 32,900  Level Jacksonville Center
07:46AM 30.1994 -82.6642 359° North 417 480 32,900  Level Jacksonville Center
07:47AM 30.3186 -82.6494 North 422 486 32,900  Level Jacksonville Center
07:48AM 30.4500 -82.6372 North 422 486 32,900  Level Jacksonville Center
07:49AM 30.5647 -82.6175 North 422 486 32,900  Level Jacksonville Center
07:50AM 30.6881 -82.6028 North 422 486 32,900  Level Jacksonville Center
07:51AM 30.8089 -82.5853 North 428 493 32,900  Level Jacksonville Center
07:52AM 30.9239 -82.5681 North 423 487 32,900  Level Jacksonville Center
07:53AM 31.0450 -82.5531 North 423 487 32,900  Level Jacksonville Center
07:54AM 31.1639 -82.5356 North 423 487 32,900  Level Jacksonville Center
07:55AM 31.2828 -82.5183 North 423 487 32,900  Level Jacksonville Center
07:56AM 31.4039 -82.4983 North 429 494 33,000  Climbing Jacksonville Center
07:57AM 31.5228 -82.4808 North 429 494 33,000  Level Jacksonville Center
07:58AM 31.6417 -82.4631 North 429 494 33,000  Level Jacksonville Center
08:00AM 31.9072 -82.4267 North 427 491 33,000  Level Atlanta Center
08:01AM 32.0261 -82.4122 North 427 491 33,000  Level Atlanta Center
08:02AM 32.1447 -82.3928 North 427 491 33,000  Level Atlanta Center
08:03AM 32.2633 -82.3758 North 427 491 33,000  Level Atlanta Center
08:04AM 32.3822 -82.3589 North 427 491 33,000  Level Atlanta Center
08:05AM 32.5031 -82.3394 North 427 491 33,000  Level Atlanta Center
08:06AM 32.6239 -82.3197 North 427 491 33,000  Level Atlanta Center
08:07AM 32.7425 -82.3053 North 427 491 33,000  Level Atlanta Center
08:08AM 32.8633 -82.2881 North 427 491 33,000  Level Atlanta Center
08:09AM 32.9800 -82.2708 North 427 491 33,000  Level Atlanta Center
08:10AM 33.1008 -82.2508 North 427 491 33,000  Level Atlanta Center
08:11AM 33.2217 -82.2336 North 427 491 33,000  Level Atlanta Center
08:12AM 33.3403 -82.2161 North 427 491 33,000  Level Atlanta Center
08:13AM 33.4589 -82.1986 North 427 491 33,000  Level Atlanta Center
08:14AM 33.5672 -82.1839 North 432 497 33,000  Level Atlanta Center
08:15AM 33.6861 -82.1639 North 432 497 33,000  Level Atlanta Center
08:16AM 33.8047 -82.1439 North 432 497 33,000  Level Atlanta Center
08:17AM 33.9253 -82.1236 North 427 491 33,000  Level Atlanta Center
08:18AM 34.0481 -82.1008 North 427 491 33,000  Level Atlanta Center
08:19AM 34.1647 -82.0806 North 427 491 33,000  Level Atlanta Center
08:20AM 34.2875 -82.0600 North 427 491 33,000  Level Atlanta Center
08:21AM 34.4103 -82.0372 North 432 497 33,000  Level Atlanta Center
08:22AM 34.5436 -82.0136 North 439 505 33,000  Level Atlanta Center
08:23AM 34.6683 -81.9931 North 445 512 33,000  Level Atlanta Center
08:24AM 34.7911 -81.9725 North 445 512 33,000  Level Atlanta Center
08:25AM 34.9119 -81.9517 North 445 512 33,000  Level Atlanta Center
08:26AM 35.0325 -81.9258 10° North 445 512 33,000  Level Atlanta Center
08:27AM 35.1522 -81.8617 24° Northeast 452 520 33,000  Level Atlanta Center
08:28AM 35.2719 -81.7925 25° Northeast 458 527 33,000  Level Atlanta Center
08:29AM 35.3753 -81.7336 25° Northeast 465 535 33,000  Level Atlanta Center
08:30AM 35.4928 -81.6639 26° Northeast 460 529 33,000  Level Atlanta Center
08:31AM 35.6106 -81.5967 25° Northeast 460 529 33,000 -540 Level Atlanta Center
08:32AM 35.7281 -81.5292 25° Northeast 460 529 32,000 -1,020 Descending Atlanta Center
08:33AM 35.8414 -81.4592 27° Northeast 455 524 31,000 -1,020 Descending Atlanta Center
08:34AM 35.9506 -81.3942 26° Northeast 450 518 30,000 -1,020 Descending Atlanta Center
08:35AM 36.0597 -81.3289 26° Northeast 438 504 29,000 -1,020 Descending Atlanta Center
08:36AM 36.1647 -81.2689 25° Northeast 426 490 28,000 -1,200 Descending Atlanta Center
08:37AM 36.2758 -81.2031 26° Northeast 426 490 26,600 -1,740 Descending Atlanta Center
08:38AM 36.3889 -81.1322 27° Northeast 433 498 24,600 -2,160 Descending Atlanta Center
08:39AM 36.5019 -81.0636 26° Northeast 445 512 22,300 -2,340 Descending Atlanta Center
08:40AM 36.6108 -80.9947 27° Northeast 439 505 20,000 -2,460 Descending Atlanta Center
08:41AM 36.6956 -80.8906 45° Northeast 426 490 17,400 -2,520 Descending Atlanta Center
08:42AM 36.7678 -80.7736 52° Northeast 397 457 15,000 -2,340 Descending Atlanta Center
08:43AM 36.8378 -80.6697 50° Northeast 397 457 12,800 -2,220 Descending Atlanta Center
08:45AM 36.9434 -80.5105 50° Northeast  Level FlightAware Approximate
08:52AM 37.3167 -79.9667 58° Northeast  Level FlightAware Approximate
08:53AM 37.3255 -79.9754 58° Northeast  Level Estimated
08:54AM 37.3255 -79.9754 58° Northeast  Level Estimated
08:55AM 37.3255 -79.9754 58° Northeast  Level Estimated
08:56AM 37.3255 -79.9754 58° Northeast  Level Estimated
08:57AM 37.3255 -79.9754 58° Northeast  Level Estimated
08:58AM 37.3255 -79.9754 58° Northeast  Level Estimated